sensor_id;sensor_type;location;lat;lon;timestamp;pressure;altitude;pressure_sealevel;temperature;humidity
80128;BME280;69440;52.118;5.408;2023-09-19T00:00:35;100838.69;;;14.58;100.00
80128;BME280;69440;52.118;5.408;2023-09-19T00:03:02;100841.63;;;14.55;100.00
80128;BME280;69440;52.118;5.408;2023-09-19T00:05:34;100856.88;;;14.56;100.00
80128;BME280;69440;52.118;5.408;2023-09-19T00:08:01;100857.00;;;14.54;100.00
80128;BME280;69440;52.118;5.408;2023-09-19T00:10:34;100861.03;;;14.49;100.00
80128;BME280;69440;52.118;5.408;2023-09-19T00:13:04;100866.78;;;14.44;100.00
80128;BME280;69440;52.118;5.408;2023-09-19T00:15:39;100868.28;;;14.48;100.00
80128;BME280;69440;52.118;5.408;2023-09-19T00:18:07;100869.16;;;14.49;100.00
80128;BME280;69440;52.118;5.408;2023-09-19T00:20:38;100872.94;;;14.46;100.00
80128;BME280;69440;52.118;5.408;2023-09-19T00:23:05;100870.00;;;14.49;100.00
80128;BME280;69440;52.118;5.408;2023-09-19T00:25:37;100870.00;;;14.49;100.00
80128;BME280;69440;52.118;5.408;2023-09-19T00:28:04;100862.00;;;14.48;100.00
80128;BME280;69440;52.118;5.408;2023-09-19T00:30:35;100865.69;;;14.47;100.00
80128;BME280;69440;52.118;5.408;2023-09-19T00:33:02;100867.78;;;14.43;100.00
80128;BME280;69440;52.118;5.408;2023-09-19T00:35:32;100874.91;;;14.44;100.00
80128;BME280;69440;52.118;5.408;2023-09-19T00:37:59;100875.53;;;14.48;100.00
80128;BME280;69440;52.118;5.408;2023-09-19T00:40:25;100872.84;;;14.48;100.00
80128;BME280;69440;52.118;5.408;2023-09-19T00:42:57;100873.81;;;14.47;100.00
80128;BME280;69440;52.118;5.408;2023-09-19T00:45:26;100877.38;;;14.47;100.00
80128;BME280;69440;52.118;5.408;2023-09-19T00:47:54;100878.25;;;14.48;100.00
80128;BME280;69440;52.118;5.408;2023-09-19T00:50:24;100873.69;;;14.48;100.00
80128;BME280;69440;52.118;5.408;2023-09-19T00:52:54;100885.59;;;14.46;100.00
80128;BME280;69440;52.118;5.408;2023-09-19T00:55:24;100880.84;;;14.49;100.00
80128;BME280;69440;52.118;5.408;2023-09-19T00:57:52;100883.88;;;14.45;100.00
80128;BME280;69440;52.118;5.408;2023-09-19T01:00:19;100883.53;;;14.49;100.00
80128;BME280;69440;52.118;5.408;2023-09-19T01:02:47;100893.16;;;14.53;100.00
80128;BME280;69440;52.118;5.408;2023-09-19T01:05:14;100888.72;;;14.52;100.00
80128;BME280;69440;52.118;5.408;2023-09-19T01:07:41;100885.88;;;14.54;100.00
80128;BME280;69440;52.118;5.408;2023-09-19T01:10:11;100888.47;;;14.55;100.00
80128;BME280;69440;52.118;5.408;2023-09-19T01:12:48;100898.22;;;14.58;100.00
80128;BME280;69440;52.118;5.408;2023-09-19T01:18:31;100893.78;;;14.57;100.00
80128;BME280;69440;52.118;5.408;2023-09-19T01:21:27;100898.94;;;14.60;100.00
80128;BME280;69440;52.118;5.408;2023-09-19T01:29:45;100893.31;;;14.63;100.00
80128;BME280;69440;52.118;5.408;2023-09-19T01:32:19;100893.66;;;14.58;100.00
80128;BME280;69440;52.118;5.408;2023-09-19T01:34:54;100897.97;;;14.61;100.00
80128;BME280;69440;52.118;5.408;2023-09-19T01:37:22;100904.25;;;14.62;100.00
80128;BME280;69440;52.118;5.408;2023-09-19T01:40:00;100893.78;;;14.57;100.00
80128;BME280;69440;52.118;5.408;2023-09-19T01:42:45;100896.47;;;14.57;100.00
80128;BME280;69440;52.118;5.408;2023-09-19T01:52:57;100910.22;;;14.54;100.00
80128;BME280;69440;52.118;5.408;2023-09-19T01:55:28;100912.81;;;14.55;100.00
80128;BME280;69440;52.118;5.408;2023-09-19T01:58:06;100910.13;;;14.55;100.00
80128;BME280;69440;52.118;5.408;2023-09-19T02:00:34;100910.63;;;14.60;100.00
80128;BME280;69440;52.118;5.408;2023-09-19T02:03:02;100916.63;;;14.53;100.00
80128;BME280;69440;52.118;5.408;2023-09-19T02:05:30;100915.88;;;14.51;100.00
80128;BME280;69440;52.118;5.408;2023-09-19T02:07:57;100912.19;;;14.52;100.00
80128;BME280;69440;52.118;5.408;2023-09-19T02:10:25;100916.75;;;14.51;100.00
80128;BME280;69440;52.118;5.408;2023-09-19T02:12:51;100913.16;;;14.51;100.00
80128;BME280;69440;52.118;5.408;2023-09-19T02:15:18;100912.78;;;14.44;100.00
80128;BME280;69440;52.118;5.408;2023-09-19T02:17:45;100911.69;;;14.47;100.00
80128;BME280;69440;52.118;5.408;2023-09-19T02:20:12;100908.22;;;14.45;100.00
80128;BME280;69440;52.118;5.408;2023-09-19T02:22:41;100907.34;;;14.44;100.00
80128;BME280;69440;52.118;5.408;2023-09-19T02:25:08;100912.97;;;14.41;100.00
80128;BME280;69440;52.118;5.408;2023-09-19T02:27:34;100911.31;;;14.39;100.00
80128;BME280;69440;52.118;5.408;2023-09-19T02:30:02;100908.84;;;14.36;100.00
80128;BME280;69440;52.118;5.408;2023-09-19T02:32:29;100928.88;;;14.33;100.00
80128;BME280;69440;52.118;5.408;2023-09-19T02:34:57;100926.16;;;14.33;100.00
80128;BME280;69440;52.118;5.408;2023-09-19T02:37:26;100917.41;;;14.29;100.00
80128;BME280;69440;52.118;5.408;2023-09-19T02:39:53;100923.69;;;14.30;100.00
80128;BME280;69440;52.118;5.408;2023-09-19T02:42:19;100931.03;;;14.28;100.00
80128;BME280;69440;52.118;5.408;2023-09-19T02:44:46;100926.84;;;14.24;100.00
80128;BME280;69440;52.118;5.408;2023-09-19T02:47:14;100927.06;;;14.21;100.00
80128;BME280;69440;52.118;5.408;2023-09-19T02:49:41;100922.97;;;14.15;100.00
80128;BME280;69440;52.118;5.408;2023-09-19T02:52:09;100922.56;;;14.09;100.00
80128;BME280;69440;52.118;5.408;2023-09-19T02:54:37;100930.34;;;14.01;100.00
80128;BME280;69440;52.118;5.408;2023-09-19T02:57:04;100932.50;;;13.95;100.00
80128;BME280;69440;52.118;5.408;2023-09-19T02:59:32;100922.56;;;13.96;100.00
80128;BME280;69440;52.118;5.408;2023-09-19T03:01:59;100928.19;;;13.93;100.00
80128;BME280;69440;52.118;5.408;2023-09-19T03:04:26;100931.22;;;13.88;100.00
80128;BME280;69440;52.118;5.408;2023-09-19T03:06:53;100929.50;;;13.87;100.00
80128;BME280;69440;52.118;5.408;2023-09-19T03:09:24;100926.38;;;13.81;100.00
80128;BME280;69440;52.118;5.408;2023-09-19T03:11:51;100922.91;;;13.79;100.00
80128;BME280;69440;52.118;5.408;2023-09-19T03:14:17;100921.28;;;13.76;100.00
80128;BME280;69440;52.118;5.408;2023-09-19T03:16:46;100920.31;;;13.77;100.00
80128;BME280;69440;52.118;5.408;2023-09-19T03:19:12;100922.47;;;13.72;100.00
80128;BME280;69440;52.118;5.408;2023-09-19T03:21:41;100931.00;;;13.66;100.00
80128;BME280;69440;52.118;5.408;2023-09-19T03:24:08;100935.75;;;13.62;100.00
80128;BME280;69440;52.118;5.408;2023-09-19T03:26:34;100921.50;;;13.60;100.00
80128;BME280;69440;52.118;5.408;2023-09-19T03:29:05;100931.88;;;13.54;100.00
80128;BME280;69440;52.118;5.408;2023-09-19T03:31:34;100922.81;;;13.55;100.00
80128;BME280;69440;52.118;5.408;2023-09-19T03:34:03;100930.25;;;13.51;100.00
80128;BME280;69440;52.118;5.408;2023-09-19T03:36:30;100934.44;;;13.43;100.00
80128;BME280;69440;52.118;5.408;2023-09-19T03:38:56;100929.91;;;13.43;100.00
80128;BME280;69440;52.118;5.408;2023-09-19T03:41:23;100930.00;;;13.42;100.00
80128;BME280;69440;52.118;5.408;2023-09-19T03:43:49;100929.91;;;13.43;100.00
80128;BME280;69440;52.118;5.408;2023-09-19T03:46:16;100919.22;;;13.42;100.00
80128;BME280;69440;52.118;5.408;2023-09-19T03:48:42;100917.81;;;13.36;100.00
80128;BME280;69440;52.118;5.408;2023-09-19T03:51:09;100917.69;;;13.38;100.00
80128;BME280;69440;52.118;5.408;2023-09-19T03:53:37;100920.72;;;13.33;100.00
80128;BME280;69440;52.118;5.408;2023-09-19T03:56:04;100924.28;;;13.33;100.00
80128;BME280;69440;52.118;5.408;2023-09-19T03:58:30;100929.03;;;13.30;100.00
80128;BME280;69440;52.118;5.408;2023-09-19T04:00:57;100936.38;;;13.28;100.00
80128;BME280;69440;52.118;5.408;2023-09-19T04:03:24;100934.09;;;13.22;100.00
80128;BME280;69440;52.118;5.408;2023-09-19T04:06:01;100945.13;;;13.19;100.00
80128;BME280;69440;52.118;5.408;2023-09-19T04:08:28;100946.75;;;13.21;100.00
80128;BME280;69440;52.118;5.408;2023-09-19T04:10:56;100952.13;;;13.21;100.00
80128;BME280;69440;52.118;5.408;2023-09-19T04:13:23;100954.06;;;13.19;100.00
80128;BME280;69440;52.118;5.408;2023-09-19T04:15:49;100963.28;;;13.15;100.00
80128;BME280;69440;52.118;5.408;2023-09-19T04:18:16;100955.50;;;13.11;100.00
80128;BME280;69440;52.118;5.408;2023-09-19T04:20:48;100957.25;;;13.12;100.00
80128;BME280;69440;52.118;5.408;2023-09-19T04:23:14;100955.06;;;13.18;100.00
80128;BME280;69440;52.118;5.408;2023-09-19T04:25:41;100964.69;;;13.08;100.00
80128;BME280;69440;52.118;5.408;2023-09-19T04:28:08;100973.84;;;13.05;100.00
80128;BME280;69440;52.118;5.408;2023-09-19T04:30:37;100976.44;;;13.07;100.00
80128;BME280;69440;52.118;5.408;2023-09-19T04:33:04;100976.44;;;13.07;100.00
80128;BME280;69440;52.118;5.408;2023-09-19T04:35:34;100985.41;;;13.07;100.00
80128;BME280;69440;52.118;5.408;2023-09-19T04:38:01;100992.53;;;13.09;100.00
80128;BME280;69440;52.118;5.408;2023-09-19T04:40:29;101000.63;;;13.09;100.00
80128;BME280;69440;52.118;5.408;2023-09-19T04:42:56;101006.78;;;13.11;100.00
80128;BME280;69440;52.118;5.408;2023-09-19T04:45:23;101006.03;;;13.09;100.00
80128;BME280;69440;52.118;5.408;2023-09-19T04:47:50;100994.47;;;13.06;100.00
80128;BME280;69440;52.118;5.408;2023-09-19T04:50:17;100999.75;;;13.08;100.00
80128;BME280;69440;52.118;5.408;2023-09-19T04:52:44;100992.31;;;13.12;100.00
80128;BME280;69440;52.118;5.408;2023-09-19T04:55:12;100995.03;;;13.12;100.00
80128;BME280;69440;52.118;5.408;2023-09-19T04:57:48;100993.09;;;13.14;100.00
80128;BME280;69440;52.118;5.408;2023-09-19T05:00:17;100987.78;;;13.12;100.00
80128;BME280;69440;52.118;5.408;2023-09-19T05:02:48;100986.06;;;13.11;99.66
80128;BME280;69440;52.118;5.408;2023-09-19T05:05:15;100988.53;;;13.14;99.92
80128;BME280;69440;52.118;5.408;2023-09-19T05:07:46;100992.97;;;13.15;99.79
80128;BME280;69440;52.118;5.408;2023-09-19T05:10:14;101006.56;;;13.14;99.57
80128;BME280;69440;52.118;5.408;2023-09-19T05:12:41;101000.09;;;13.16;99.61
80128;BME280;69440;52.118;5.408;2023-09-19T05:15:08;100999.25;;;13.16;99.24
80128;BME280;69440;52.118;5.408;2023-09-19T05:17:35;101000.94;;;13.18;99.33
80128;BME280;69440;52.118;5.408;2023-09-19T05:20:02;100994.47;;;13.21;99.37
80128;BME280;69440;52.118;5.408;2023-09-19T05:22:32;101004.50;;;13.19;99.78
80128;BME280;69440;52.118;5.408;2023-09-19T05:24:59;101000.81;;;13.20;99.60
80128;BME280;69440;52.118;5.408;2023-09-19T05:27:25;101000.72;;;13.21;99.45
80128;BME280;69440;52.118;5.408;2023-09-19T05:29:52;101003.41;;;13.21;99.16
80128;BME280;69440;52.118;5.408;2023-09-19T05:32:19;100996.09;;;13.23;99.89
80128;BME280;69440;52.118;5.408;2023-09-19T05:34:46;101003.09;;;13.26;99.31
80128;BME280;69440;52.118;5.408;2023-09-19T05:37:16;101005.81;;;13.26;98.68
80128;BME280;69440;52.118;5.408;2023-09-19T05:39:42;100989.50;;;13.27;99.33
80128;BME280;69440;52.118;5.408;2023-09-19T05:42:10;100991.22;;;13.28;98.84
80128;BME280;69440;52.118;5.408;2023-09-19T05:44:36;100993.81;;;13.30;98.52
80128;BME280;69440;52.118;5.408;2023-09-19T05:47:03;100999.22;;;13.30;97.96
80128;BME280;69440;52.118;5.408;2023-09-19T05:49:30;100995.44;;;13.32;98.05
80128;BME280;69440;52.118;5.408;2023-09-19T05:51:56;101000.53;;;13.37;98.20
80128;BME280;69440;52.118;5.408;2023-09-19T05:54:25;101009.38;;;13.39;98.58
80128;BME280;69440;52.118;5.408;2023-09-19T05:56:52;101006.38;;;13.44;98.65
80128;BME280;69440;52.118;5.408;2023-09-19T05:59:19;101012.63;;;13.44;97.71
80128;BME280;69440;52.118;5.408;2023-09-19T06:01:45;101008.09;;;13.45;97.66
80128;BME280;69440;52.118;5.408;2023-09-19T06:04:13;101007.91;;;13.48;98.95
80128;BME280;69440;52.118;5.408;2023-09-19T06:06:40;101010.50;;;13.49;98.30
80128;BME280;69440;52.118;5.408;2023-09-19T06:09:06;101019.38;;;13.51;98.19
80128;BME280;69440;52.118;5.408;2023-09-19T06:11:36;101020.13;;;13.53;98.51
80128;BME280;69440;52.118;5.408;2023-09-19T06:14:03;101027.38;;;13.53;98.29
80128;BME280;69440;52.118;5.408;2023-09-19T06:16:30;101026.59;;;13.51;98.48
80128;BME280;69440;52.118;5.408;2023-09-19T06:19:00;101022.28;;;13.48;97.91
80128;BME280;69440;52.118;5.408;2023-09-19T06:21:27;101032.97;;;13.50;98.32
80128;BME280;69440;52.118;5.408;2023-09-19T06:23:53;101031.78;;;13.54;97.87
80128;BME280;69440;52.118;5.408;2023-09-19T06:26:20;101038.81;;;13.56;98.06
80128;BME280;69440;52.118;5.408;2023-09-19T06:28:46;101037.09;;;13.55;96.95
80128;BME280;69440;52.118;5.408;2023-09-19T06:31:14;101023.28;;;13.60;98.29
80128;BME280;69440;52.118;5.408;2023-09-19T06:33:41;101032.25;;;13.60;97.58
80128;BME280;69440;52.118;5.408;2023-09-19T06:36:09;101029.31;;;13.63;97.90
80128;BME280;69440;52.118;5.408;2023-09-19T06:38:35;101021.13;;;13.65;97.96
80128;BME280;69440;52.118;5.408;2023-09-19T06:41:02;101021.97;;;13.65;97.31
80128;BME280;69440;52.118;5.408;2023-09-19T06:43:34;101020.03;;;13.67;97.34
80128;BME280;69440;52.118;5.408;2023-09-19T06:46:01;101022.31;;;13.74;97.70
80128;BME280;69440;52.118;5.408;2023-09-19T06:48:28;101023.75;;;13.79;97.59
80128;BME280;69440;52.118;5.408;2023-09-19T06:50:59;101023.53;;;13.82;97.77
80128;BME280;69440;52.118;5.408;2023-09-19T06:53:32;101024.06;;;13.87;98.80
80128;BME280;69440;52.118;5.408;2023-09-19T06:55:58;101017.69;;;13.88;97.58
80128;BME280;69440;52.118;5.408;2023-09-19T06:58:25;101019.31;;;13.91;97.38
80128;BME280;69440;52.118;5.408;2023-09-19T07:00:52;101019.84;;;13.96;98.71
80128;BME280;69440;52.118;5.408;2023-09-19T07:03:18;101016.16;;;13.97;97.52
80128;BME280;69440;52.118;5.408;2023-09-19T07:05:48;101013.13;;;14.02;97.64
80128;BME280;69440;52.118;5.408;2023-09-19T07:08:14;101020.06;;;14.06;97.51
80128;BME280;69440;52.118;5.408;2023-09-19T07:10:42;101023.31;;;14.11;97.45
80128;BME280;69440;52.118;5.408;2023-09-19T07:13:15;101018.34;;;14.17;97.81
80128;BME280;69440;52.118;5.408;2023-09-19T07:15:44;101022.56;;;14.21;97.35
80128;BME280;69440;52.118;5.408;2023-09-19T07:18:14;101024.06;;;14.25;96.28
80128;BME280;69440;52.118;5.408;2023-09-19T07:20:44;101025.34;;;14.33;97.10
80128;BME280;69440;52.118;5.408;2023-09-19T07:23:20;101033.00;;;14.39;97.18
80128;BME280;69440;52.118;5.408;2023-09-19T07:25:49;101040.84;;;14.43;96.20
80128;BME280;69440;52.118;5.408;2023-09-19T07:28:16;101040.53;;;14.48;96.30
80128;BME280;69440;52.118;5.408;2023-09-19T07:30:43;101047.44;;;14.52;95.58
80128;BME280;69440;52.118;5.408;2023-09-19T07:33:09;101042.78;;;14.54;95.38
80128;BME280;69440;52.118;5.408;2023-09-19T07:35:38;101041.47;;;14.59;95.88
80128;BME280;69440;52.118;5.408;2023-09-19T07:38:07;101050.00;;;14.66;95.90
80128;BME280;69440;52.118;5.408;2023-09-19T07:40:34;101056.81;;;14.72;95.47
80128;BME280;69440;52.118;5.408;2023-09-19T07:43:01;101047.38;;;14.77;95.77
80128;BME280;69440;52.118;5.408;2023-09-19T07:45:28;101053.22;;;14.84;94.70
80128;BME280;69440;52.118;5.408;2023-09-19T07:47:56;101054.59;;;14.89;93.93
80128;BME280;69440;52.118;5.408;2023-09-19T07:50:23;101051.31;;;14.97;94.01
80128;BME280;69440;52.118;5.408;2023-09-19T07:52:50;101046.56;;;15.01;93.36
80128;BME280;69440;52.118;5.408;2023-09-19T07:55:20;101056.81;;;15.08;92.59
80128;BME280;69440;52.118;5.408;2023-09-19T07:57:50;101060.91;;;15.14;92.88
80128;BME280;69440;52.118;5.408;2023-09-19T08:00:17;101047.75;;;15.20;93.04
80128;BME280;69440;52.118;5.408;2023-09-19T08:02:43;101043.84;;;15.25;92.09
80128;BME280;69440;52.118;5.408;2023-09-19T08:05:12;101046.44;;;15.26;91.79
80128;BME280;69440;52.118;5.408;2023-09-19T08:07:43;101052.41;;;15.31;91.76
80128;BME280;69440;52.118;5.408;2023-09-19T08:10:12;101050.72;;;15.41;91.60
80128;BME280;69440;52.118;5.408;2023-09-19T08:12:43;101054.31;;;15.53;92.25
80128;BME280;69440;52.118;5.408;2023-09-19T08:15:14;101069.28;;;15.59;90.82
80128;BME280;69440;52.118;5.408;2023-09-19T08:17:41;101061.16;;;15.59;91.22
80128;BME280;69440;52.118;5.408;2023-09-19T08:20:09;101059.38;;;15.58;90.83
80128;BME280;69440;52.118;5.408;2023-09-19T08:22:49;101047.28;;;15.63;90.94
80128;BME280;69440;52.118;5.408;2023-09-19T08:25:18;101046.53;;;15.61;90.72
80128;BME280;69440;52.118;5.408;2023-09-19T08:27:46;101053.94;;;15.70;91.56
80128;BME280;69440;52.118;5.408;2023-09-19T08:30:17;101047.06;;;15.77;91.20
80128;BME280;69440;52.118;5.408;2023-09-19T08:32:44;101042.63;;;15.88;91.34
80128;BME280;69440;52.118;5.408;2023-09-19T08:35:13;101055.31;;;15.87;90.49
80128;BME280;69440;52.118;5.408;2023-09-19T08:37:42;101039.81;;;15.89;91.09
80128;BME280;69440;52.118;5.408;2023-09-19T08:40:09;101032.31;;;15.93;90.39
80128;BME280;69440;52.118;5.408;2023-09-19T08:42:52;101043.91;;;15.95;90.00
80128;BME280;69440;52.118;5.408;2023-09-19T08:45:23;101047.25;;;15.98;90.17
80128;BME280;69440;52.118;5.408;2023-09-19T08:48:00;101034.19;;;16.03;90.28
80128;BME280;69440;52.118;5.408;2023-09-19T08:50:30;101033.81;;;16.08;89.33
80128;BME280;69440;52.118;5.408;2023-09-19T08:53:01;101040.72;;;16.12;88.73
80128;BME280;69440;52.118;5.408;2023-09-19T08:55:28;101028.75;;;16.14;89.74
80128;BME280;69440;52.118;5.408;2023-09-19T08:58:04;101033.34;;;16.25;89.16
80128;BME280;69440;52.118;5.408;2023-09-19T09:00:34;101027.94;;;16.36;89.70
80128;BME280;69440;52.118;5.408;2023-09-19T09:03:02;101039.63;;;16.48;88.55
80128;BME280;69440;52.118;5.408;2023-09-19T09:05:30;101043.59;;;16.55;88.99
80128;BME280;69440;52.118;5.408;2023-09-19T09:07:58;101030.53;;;16.60;87.37
80128;BME280;69440;52.118;5.408;2023-09-19T09:10:26;101041.13;;;16.63;86.79
80128;BME280;69440;52.118;5.408;2023-09-19T09:12:53;101041.88;;;16.65;87.15
80128;BME280;69440;52.118;5.408;2023-09-19T09:15:24;101036.34;;;16.67;86.73
80128;BME280;69440;52.118;5.408;2023-09-19T09:17:51;101041.63;;;16.68;84.91
80128;BME280;69440;52.118;5.408;2023-09-19T09:20:21;101052.00;;;16.74;85.19
80128;BME280;69440;52.118;5.408;2023-09-19T09:22:55;101028.03;;;16.80;86.50
80128;BME280;69440;52.118;5.408;2023-09-19T09:25:22;101022.25;;;16.84;85.19
80128;BME280;69440;52.118;5.408;2023-09-19T09:28:01;101035.59;;;16.87;85.50
80128;BME280;69440;52.118;5.408;2023-09-19T09:30:36;101020.75;;;16.91;85.85
80128;BME280;69440;52.118;5.408;2023-09-19T09:33:11;101024.47;;;16.90;84.99
80128;BME280;69440;52.118;5.408;2023-09-19T09:38:22;101019.25;;;16.98;83.47
80128;BME280;69440;52.118;5.408;2023-09-19T09:40:55;101020.22;;;17.08;83.36
80128;BME280;69440;52.118;5.408;2023-09-19T09:43:34;101017.34;;;17.21;84.17
80128;BME280;69440;52.118;5.408;2023-09-19T09:46:16;100993.63;;;17.23;82.14
80128;BME280;69440;52.118;5.408;2023-09-19T09:49:00;101004.56;;;17.33;82.75
80128;BME280;69440;52.118;5.408;2023-09-19T09:51:49;101001.69;;;17.46;80.56
80128;BME280;69440;52.118;5.408;2023-09-19T09:54:29;101020.19;;;17.52;81.95
80128;BME280;69440;52.118;5.408;2023-09-19T09:57:09;101005.28;;;17.46;80.08
80128;BME280;69440;52.118;5.408;2023-09-19T09:59:55;101003.09;;;17.61;81.55
80128;BME280;69440;52.118;5.408;2023-09-19T10:05:11;101043.56;;;17.43;80.25
80128;BME280;69440;52.118;5.408;2023-09-19T10:07:48;101014.91;;;17.39;79.95
80128;BME280;69440;52.118;5.408;2023-09-19T10:10:32;101001.16;;;17.52;79.59
80128;BME280;69440;52.118;5.408;2023-09-19T10:13:13;101018.59;;;17.49;79.11
80128;BME280;69440;52.118;5.408;2023-09-19T10:15:47;101028.88;;;17.46;80.17
80128;BME280;69440;52.118;5.408;2023-09-19T10:18:23;101019.34;;;17.40;78.65
80128;BME280;69440;52.118;5.408;2023-09-19T10:20:50;101014.56;;;17.32;78.63
80128;BME280;69440;52.118;5.408;2023-09-19T10:23:18;101051.03;;;17.30;80.44
80128;BME280;69440;52.118;5.408;2023-09-19T10:25:53;101027.78;;;17.37;78.79
80128;BME280;69440;52.118;5.408;2023-09-19T10:28:21;101000.75;;;17.56;79.08
80128;BME280;69440;52.118;5.408;2023-09-19T10:30:50;101008.88;;;17.67;76.87
80128;BME280;69440;52.118;5.408;2023-09-19T10:33:20;100980.91;;;17.77;78.55
80128;BME280;69440;52.118;5.408;2023-09-19T10:35:53;100987.88;;;17.90;78.26
80128;BME280;69440;52.118;5.408;2023-09-19T10:38:24;100985.56;;;18.16;77.65
80128;BME280;69440;52.118;5.408;2023-09-19T10:40:56;100974.03;;;18.34;75.57
80128;BME280;69440;52.118;5.408;2023-09-19T10:43:30;100975.38;;;18.39;77.43
80128;BME280;69440;52.118;5.408;2023-09-19T10:46:11;100971.94;;;18.37;77.22
80128;BME280;69440;52.118;5.408;2023-09-19T10:48:40;100959.34;;;18.46;77.80
80128;BME280;69440;52.118;5.408;2023-09-19T10:51:18;100972.19;;;18.34;76.38
80128;BME280;69440;52.118;5.408;2023-09-19T10:53:50;100961.13;;;18.26;76.74
80128;BME280;69440;52.118;5.408;2023-09-19T10:56:24;100966.00;;;18.32;77.40
80128;BME280;69440;52.118;5.408;2023-09-19T10:59:06;100946.81;;;18.34;76.67
80128;BME280;69440;52.118;5.408;2023-09-19T11:01:54;100961.22;;;18.45;76.68
80128;BME280;69440;52.118;5.408;2023-09-19T11:04:32;100957.03;;;18.41;76.59
80128;BME280;69440;52.118;5.408;2023-09-19T11:07:07;100945.63;;;18.57;76.47
80128;BME280;69440;52.118;5.408;2023-09-19T11:09:47;100940.81;;;18.70;75.68
80128;BME280;69440;52.118;5.408;2023-09-19T11:15:07;100938.72;;;18.53;76.85
80128;BME280;69440;52.118;5.408;2023-09-19T11:17:36;100938.16;;;18.49;76.72
80128;BME280;69440;52.118;5.408;2023-09-19T11:30:33;100949.31;;;19.06;73.57
80128;BME280;69440;52.118;5.408;2023-09-19T11:33:16;100938.53;;;18.85;74.08
80128;BME280;69440;52.118;5.408;2023-09-19T11:46:27;100927.03;;;18.31;75.78
80128;BME280;69440;52.118;5.408;2023-09-19T11:48:55;100914.44;;;18.30;73.68
80128;BME280;69440;52.118;5.408;2023-09-19T11:51:24;100911.91;;;18.39;73.66
80128;BME280;69440;52.118;5.408;2023-09-19T11:53:55;100909.88;;;18.81;72.29
80128;BME280;69440;52.118;5.408;2023-09-19T11:56:24;100910.44;;;18.84;71.63
80128;BME280;69440;52.118;5.408;2023-09-19T11:58:53;100908.56;;;18.75;72.04
80128;BME280;69440;52.118;5.408;2023-09-19T12:01:23;100913.13;;;18.65;72.07
80128;BME280;69440;52.118;5.408;2023-09-19T12:03:56;100919.25;;;18.57;73.32
80128;BME280;69440;52.118;5.408;2023-09-19T12:06:27;100922.69;;;18.50;72.10
80128;BME280;69440;52.118;5.408;2023-09-19T12:08:53;100936.72;;;18.45;72.88
80128;BME280;69440;52.118;5.408;2023-09-19T12:11:22;100953.03;;;18.45;73.03
80128;BME280;69440;52.118;5.408;2023-09-19T12:13:49;100934.56;;;18.49;72.81
80128;BME280;69440;52.118;5.408;2023-09-19T12:16:18;100934.88;;;18.55;72.31
80128;BME280;69440;52.118;5.408;2023-09-19T12:18:49;100910.34;;;18.55;73.00
80128;BME280;69440;52.118;5.408;2023-09-19T12:21:27;100912.22;;;18.55;73.31
80128;BME280;69440;52.118;5.408;2023-09-19T12:24:14;100923.41;;;18.61;73.37
80128;BME280;69440;52.118;5.408;2023-09-19T12:26:43;100919.38;;;18.56;72.25
80128;BME280;69440;52.118;5.408;2023-09-19T12:29:17;100913.78;;;18.48;73.69
80128;BME280;69440;52.118;5.408;2023-09-19T12:31:54;100928.09;;;18.40;73.12
80128;BME280;69440;52.118;5.408;2023-09-19T12:34:26;100920.31;;;18.36;73.67
80128;BME280;69440;52.118;5.408;2023-09-19T12:37:14;100921.94;;;18.38;74.38
80128;BME280;69440;52.118;5.408;2023-09-19T12:40:03;100915.34;;;18.41;74.04
80128;BME280;69440;52.118;5.408;2023-09-19T12:42:41;100922.81;;;18.39;74.79
80128;BME280;69440;52.118;5.408;2023-09-19T12:45:08;100913.31;;;18.33;74.67
80128;BME280;69440;52.118;5.408;2023-09-19T12:47:35;100907.69;;;18.25;74.09
80128;BME280;69440;52.118;5.408;2023-09-19T12:50:12;100928.16;;;18.19;74.39
80128;BME280;69440;52.118;5.408;2023-09-19T12:52:49;100941.19;;;18.16;75.23
80128;BME280;69440;52.118;5.408;2023-09-19T12:58:08;100924.84;;;18.16;75.69
80128;BME280;69440;52.118;5.408;2023-09-19T13:00:40;100913.97;;;18.16;76.35
80128;BME280;69440;52.118;5.408;2023-09-19T13:05:59;100926.19;;;18.31;76.44
80128;BME280;69440;52.118;5.408;2023-09-19T13:08:39;100934.22;;;18.33;75.48
80128;BME280;69440;52.118;5.408;2023-09-19T13:13:51;100910.44;;;18.35;74.49
80128;BME280;69440;52.118;5.408;2023-09-19T13:17:05;100918.03;;;18.31;75.21
80128;BME280;69440;52.118;5.408;2023-09-19T13:19:44;100916.72;;;18.25;75.11
80128;BME280;69440;52.118;5.408;2023-09-19T13:22:42;100944.34;;;18.21;75.78
80128;BME280;69440;52.118;5.408;2023-09-19T13:25:18;100950.34;;;18.15;77.01
80128;BME280;69440;52.118;5.408;2023-09-19T13:27:52;100954.47;;;18.09;77.04
80128;BME280;69440;52.118;5.408;2023-09-19T13:30:22;100950.28;;;18.05;77.70
80128;BME280;69440;52.118;5.408;2023-09-19T13:32:49;100932.56;;;18.11;76.92
80128;BME280;69440;52.118;5.408;2023-09-19T13:35:15;100929.31;;;18.26;76.83
80128;BME280;69440;52.118;5.408;2023-09-19T13:37:42;100935.78;;;18.35;76.54
80128;BME280;69440;52.118;5.408;2023-09-19T13:40:14;100914.63;;;18.39;76.05
80128;BME280;69440;52.118;5.408;2023-09-19T13:42:42;100926.81;;;18.44;76.08
80128;BME280;69440;52.118;5.408;2023-09-19T13:45:08;100916.94;;;18.53;76.40
80128;BME280;69440;52.118;5.408;2023-09-19T13:47:39;100907.78;;;18.54;76.49
80128;BME280;69440;52.118;5.408;2023-09-19T13:50:07;100913.09;;;18.55;76.02
80128;BME280;69440;52.118;5.408;2023-09-19T13:52:34;100911.78;;;18.59;75.82
80128;BME280;69440;52.118;5.408;2023-09-19T13:55:01;100905.50;;;18.59;75.06